Time,TemperatureF,DewpointF,PressureIn,WindDirection,WindDirectionDegrees,WindSpeedMPH,WindSpeedGustMPH,Humidity,HourlyPrecipIn,Conditions,Clouds,dailyrainin,SoftwareType,DateUTC
2013-01-10 00:57:00,75.7,69.5,30.24,East,88,4.0,16.0,81,0.00,,-RA,0.00,VWS V14.00,2013-01-10 05:57:00,
2013-01-10 01:57:00,75.7,68.7,30.23,ESE,105,12.0,15.0,79,0.00,,SCT060,0.00,VWS V14.00,2013-01-10 06:57:00,
2013-01-10 02:57:00,75.5,67.8,30.23,ESE,109,3.0,18.0,77,0.00,,SCT060,0.00,VWS V14.00,2013-01-10 07:57:00,
2013-01-10 03:57:00,75.5,67.8,30.23,ESE,109,10.0,14.0,77,0.00,,SCT024,0.00,VWS V14.00,2013-01-10 08:57:00,
2013-01-10 04:57:00,75.2,67.1,30.22,East,100,6.0,15.0,76,0.00,,FEW025,0.00,VWS V14.00,2013-01-10 09:57:00,
2013-01-10 05:56:00,75.2,66.3,30.22,ESE,117,7.0,14.0,74,0.00,,SCT050,0.00,VWS V14.00,2013-01-10 10:56:00,
2013-01-10 06:57:00,74.2,68.4,30.23,ESE,121,9.0,14.0,82,0.00,,SCT049,0.01,VWS V14.00,2013-01-10 11:57:00,
2013-01-10 07:57:00,75.6,67.5,30.25,SE,128,6.0,14.0,76,0.00,,SCT049,0.01,VWS V14.00,2013-01-10 12:57:00,
2013-01-10 08:56:00,75.7,68.0,30.27,SE,131,1.0,14.0,77,0.00,,BKN050,0.01,VWS V14.00,2013-01-10 13:56:00,
2013-01-10 09:56:00,78.6,67.6,30.26,SE,132,7.0,15.0,69,0.00,,-RA,0.01,VWS V14.00,2013-01-10 14:56:00,
2013-01-10 10:57:00,78.5,67.9,30.25,East,89,4.0,15.0,70,0.00,,BKN049,0.01,VWS V14.00,2013-01-10 15:57:00,
2013-01-10 11:57:00,78.0,66.6,30.22,SE,140,10.0,18.0,68,0.00,,-RA,0.01,VWS V14.00,2013-01-10 16:57:00,
2013-01-10 12:56:00,78.0,65.7,30.18,SE,128,9.0,18.0,66,0.00,,-RA,0.01,VWS V14.00,2013-01-10 17:56:00,
2013-01-10 13:56:00,78.3,64.7,30.17,East,91,11.0,18.0,63,0.00,,SCT049,0.01,VWS V14.00,2013-01-10 18:56:00,
2013-01-10 14:56:00,78.4,66.6,30.17,ESE,113,15.0,17.0,67,0.00,,SCT049,0.01,VWS V14.00,2013-01-10 19:56:00,
2013-01-10 15:56:00,77.3,66.3,30.20,ESE,118,5.0,15.0,69,0.00,,SCT049,0.01,VWS V14.00,2013-01-10 20:56:00,
2013-01-10 16:56:00,76.7,67.0,30.22,East,90,5.0,11.0,72,0.00,,SCT034,0.01,VWS V14.00,2013-01-10 21:56:00,
2013-01-10 17:57:00,75.7,67.2,30.23,East,88,5.0,11.0,75,0.00,,BKN050,0.01,VWS V14.00,2013-01-10 22:57:00,
2013-01-10 18:57:00,75.5,66.6,30.23,East,98,10.0,12.0,74,0.00,,SCT250,0.01,VWS V14.00,2013-01-10 23:57:00,
2013-01-10 19:57:00,75.5,67.0,30.23,SSE,158,10.0,13.0,75,0.00,,BKN046,0.01,VWS V14.00,2013-01-11 00:57:00,
2013-01-10 20:57:00,75.4,65.8,30.23,East,88,9.0,14.0,72,0.00,,SCT036,0.01,VWS V14.00,2013-01-11 01:57:00,
2013-01-10 21:57:00,75.6,66.3,30.23,SE,134,9.0,14.0,73,0.00,,FEW029,0.01,VWS V14.00,2013-01-11 02:57:00,
2013-01-10 22:56:00,75.5,68.5,30.24,ESE,119,5.0,15.0,79,0.00,,FEW029,0.01,VWS V14.00,2013-01-11 03:56:00,
2013-01-10 23:58:00,75.7,67.6,30.23,ESE,106,4.0,14.0,76,0.00,,SCT046,0.00,VWS V14.00,2013-01-11 04:58:00,